Gregory, MI (48137)

7:31 PM EST on February 14, 2016 (GMT -0500)
Putnam Meadows | | Change Station
CLOSE
Current Station
Personal Weather Station
Location: Pinckney, MI
Elevation: 940 ft
Nearby Weather Stations

Elev 940 ft 42.48 °N, 84.00 °W | Updated 13 minutes ago

Overcast
Overcast
14.8 °F
Feels Like 15 °F
N
2.0
Wind Variable Wind from SE
Gusts 9.0 mph

Today
High -- | Low -- °F
--% Chance of Precip.
Yesterday
High -- | Low -- °F
Precip. -- in
Pressure 30.21 in
Visibility 10.0 miles
Clouds Mostly Cloudy 12000 ft
Windchill 15 °F
Dew Point 7 °F
Humidity 70%
Rainfall 0.00 in
Snow Depth Not available.
7:34 AM 6:06 PM
Waxing Crescent, 47% visible
METAR KOZW 150014Z AUTO 13013KT 10SM BKN120 M10/M15 A3021 RMK AO2 T10961152
Pressure 30.21 in
Visibility 10.0 miles
Clouds Mostly Cloudy 12000 ft
Windchill 15 °F
Dew Point 7 °F
Humidity 70%
Rainfall 0.00 in
Snow Depth Not available.
7:34 AM 6:06 PM
Waxing Crescent, 47% visible
METAR KOZW 150014Z AUTO 13013KT 10SM BKN120 M10/M15 A3021 RMK AO2 T10961152

10-Day Weather Forecast

Almanac

Astronomy

Feb. 14, 2016 Rise Set
Actual Time
Civil Twilight
Nautical Twilight
Astronomical Twilight
Moon
Length of Visible Light
Length of Day
Tomorrow will be .
, % of the Moon is Illuminated

Today's Extremes

State Highs State Lows

Community

WunderPhotos

Upload Photos

1,892,950 photos uploaded!

WunderBlog® & News

Nearby

Air Quality

  Air Quality AQ Index Pollutant
Not available.

Snow Depth

Station Depth Elevation

Earthquake Activity

City Distance Mag. Time & Date
Minimum magnitude displayed is 2.5.

Coastal Water Temperatures

Place Temperature

Stations

Nearby Weather Stations

Station Location Temp. Windchill Dew Point Humidity Wind Precip. Elev Updated Type
                   

Watches & Warnings

There are currently no watches in effect.